sensor_id;sensor_type;location;lat;lon;timestamp;temperature;humidity
29353;DHT22;16344;50.364;8.944;2023-09-19T00:00:37;18.90;1.00
29353;DHT22;16344;50.364;8.944;2023-09-19T00:03:03;18.80;1.00
29353;DHT22;16344;50.364;8.944;2023-09-19T00:05:33;18.80;1.00
29353;DHT22;16344;50.364;8.944;2023-09-19T00:08:00;18.80;1.00
29353;DHT22;16344;50.364;8.944;2023-09-19T00:10:29;18.70;1.00
29353;DHT22;16344;50.364;8.944;2023-09-19T00:13:01;18.70;1.00
29353;DHT22;16344;50.364;8.944;2023-09-19T00:15:30;18.70;1.00
29353;DHT22;16344;50.364;8.944;2023-09-19T00:17:58;18.60;1.00
29353;DHT22;16344;50.364;8.944;2023-09-19T00:20:24;18.70;1.00
29353;DHT22;16344;50.364;8.944;2023-09-19T00:22:50;18.70;1.00
29353;DHT22;16344;50.364;8.944;2023-09-19T00:25:20;18.60;1.00
29353;DHT22;16344;50.364;8.944;2023-09-19T00:27:46;18.60;1.00
29353;DHT22;16344;50.364;8.944;2023-09-19T00:30:13;18.60;1.00
29353;DHT22;16344;50.364;8.944;2023-09-19T00:32:45;18.50;1.00
29353;DHT22;16344;50.364;8.944;2023-09-19T00:35:13;18.60;1.00
29353;DHT22;16344;50.364;8.944;2023-09-19T00:37:39;18.60;1.00
29353;DHT22;16344;50.364;8.944;2023-09-19T00:40:06;18.70;1.00
29353;DHT22;16344;50.364;8.944;2023-09-19T00:42:32;18.60;1.00
29353;DHT22;16344;50.364;8.944;2023-09-19T00:44:59;18.60;1.00
29353;DHT22;16344;50.364;8.944;2023-09-19T00:47:24;18.70;1.00
29353;DHT22;16344;50.364;8.944;2023-09-19T00:49:50;18.70;1.00
29353;DHT22;16344;50.364;8.944;2023-09-19T00:52:17;18.70;1.00
29353;DHT22;16344;50.364;8.944;2023-09-19T00:54:46;18.70;1.00
29353;DHT22;16344;50.364;8.944;2023-09-19T00:57:13;18.70;1.00
29353;DHT22;16344;50.364;8.944;2023-09-19T00:59:41;18.70;1.00
29353;DHT22;16344;50.364;8.944;2023-09-19T01:02:07;18.70;1.00
29353;DHT22;16344;50.364;8.944;2023-09-19T01:04:34;18.70;1.00
29353;DHT22;16344;50.364;8.944;2023-09-19T01:06:59;18.60;1.00
29353;DHT22;16344;50.364;8.944;2023-09-19T01:09:25;18.60;1.00
29353;DHT22;16344;50.364;8.944;2023-09-19T01:11:53;18.60;1.00
29353;DHT22;16344;50.364;8.944;2023-09-19T01:14:50;18.70;1.00
29353;DHT22;16344;50.364;8.944;2023-09-19T01:17:25;18.70;1.00
29353;DHT22;16344;50.364;8.944;2023-09-19T01:20:13;18.70;1.00
29353;DHT22;16344;50.364;8.944;2023-09-19T01:22:53;18.70;1.00
29353;DHT22;16344;50.364;8.944;2023-09-19T01:28:20;18.60;1.00
29353;DHT22;16344;50.364;8.944;2023-09-19T01:30:47;18.70;1.00
29353;DHT22;16344;50.364;8.944;2023-09-19T01:33:16;18.70;1.00
29353;DHT22;16344;50.364;8.944;2023-09-19T01:35:42;18.50;1.00
29353;DHT22;16344;50.364;8.944;2023-09-19T01:38:07;18.50;1.00
29353;DHT22;16344;50.364;8.944;2023-09-19T01:40:42;18.50;1.00
29353;DHT22;16344;50.364;8.944;2023-09-19T01:43:17;18.50;1.00
29353;DHT22;16344;50.364;8.944;2023-09-19T01:46:14;18.60;1.00
29353;DHT22;16344;50.364;8.944;2023-09-19T01:51:20;18.50;1.00
29353;DHT22;16344;50.364;8.944;2023-09-19T01:54:07;18.50;1.00
29353;DHT22;16344;50.364;8.944;2023-09-19T01:56:35;18.50;1.00
29353;DHT22;16344;50.364;8.944;2023-09-19T01:59:07;18.50;1.00
29353;DHT22;16344;50.364;8.944;2023-09-19T02:01:34;18.40;1.00
29353;DHT22;16344;50.364;8.944;2023-09-19T02:04:03;18.40;1.00
29353;DHT22;16344;50.364;8.944;2023-09-19T02:06:29;18.40;1.00
29353;DHT22;16344;50.364;8.944;2023-09-19T02:08:55;18.30;1.00
29353;DHT22;16344;50.364;8.944;2023-09-19T02:11:21;18.30;1.00
29353;DHT22;16344;50.364;8.944;2023-09-19T02:13:46;18.20;1.00
29353;DHT22;16344;50.364;8.944;2023-09-19T02:16:12;18.20;1.00
29353;DHT22;16344;50.364;8.944;2023-09-19T02:18:38;18.30;1.00
29353;DHT22;16344;50.364;8.944;2023-09-19T02:21:04;18.10;1.00
29353;DHT22;16344;50.364;8.944;2023-09-19T02:23:32;18.10;1.00
29353;DHT22;16344;50.364;8.944;2023-09-19T02:25:58;18.00;1.00
29353;DHT22;16344;50.364;8.944;2023-09-19T02:28:26;18.00;1.00
29353;DHT22;16344;50.364;8.944;2023-09-19T02:30:55;18.10;1.00
29353;DHT22;16344;50.364;8.944;2023-09-19T02:33:21;18.00;1.00
29353;DHT22;16344;50.364;8.944;2023-09-19T02:35:47;18.10;1.00
29353;DHT22;16344;50.364;8.944;2023-09-19T02:38:13;18.10;1.00
29353;DHT22;16344;50.364;8.944;2023-09-19T02:40:39;18.10;1.00
29353;DHT22;16344;50.364;8.944;2023-09-19T02:43:05;18.10;1.00
29353;DHT22;16344;50.364;8.944;2023-09-19T02:45:32;18.10;1.00
29353;DHT22;16344;50.364;8.944;2023-09-19T02:47:57;18.10;1.00
29353;DHT22;16344;50.364;8.944;2023-09-19T02:50:23;18.10;1.00
29353;DHT22;16344;50.364;8.944;2023-09-19T02:52:49;18.00;1.00
29353;DHT22;16344;50.364;8.944;2023-09-19T02:55:16;18.00;1.00
29353;DHT22;16344;50.364;8.944;2023-09-19T02:57:52;18.00;1.00
29353;DHT22;16344;50.364;8.944;2023-09-19T03:00:21;18.00;1.00
29353;DHT22;16344;50.364;8.944;2023-09-19T03:02:52;17.90;1.00
29353;DHT22;16344;50.364;8.944;2023-09-19T03:05:18;17.90;1.00
29353;DHT22;16344;50.364;8.944;2023-09-19T03:07:44;17.90;1.00
29353;DHT22;16344;50.364;8.944;2023-09-19T03:10:12;17.90;1.00
29353;DHT22;16344;50.364;8.944;2023-09-19T03:12:38;17.80;1.00
29353;DHT22;16344;50.364;8.944;2023-09-19T03:15:05;17.80;1.00
29353;DHT22;16344;50.364;8.944;2023-09-19T03:17:31;17.80;1.00
29353;DHT22;16344;50.364;8.944;2023-09-19T03:19:57;17.70;1.00
29353;DHT22;16344;50.364;8.944;2023-09-19T03:22:23;17.70;1.00
29353;DHT22;16344;50.364;8.944;2023-09-19T03:24:50;17.70;1.00
29353;DHT22;16344;50.364;8.944;2023-09-19T03:27:15;17.60;1.00
29353;DHT22;16344;50.364;8.944;2023-09-19T03:29:42;17.60;1.00
29353;DHT22;16344;50.364;8.944;2023-09-19T03:32:08;17.60;1.00
29353;DHT22;16344;50.364;8.944;2023-09-19T03:34:36;17.60;1.00
29353;DHT22;16344;50.364;8.944;2023-09-19T03:37:03;17.60;1.00
29353;DHT22;16344;50.364;8.944;2023-09-19T03:39:29;17.50;1.00
29353;DHT22;16344;50.364;8.944;2023-09-19T03:41:54;17.60;1.00
29353;DHT22;16344;50.364;8.944;2023-09-19T03:44:20;17.70;1.00
29353;DHT22;16344;50.364;8.944;2023-09-19T03:46:45;17.70;1.00
29353;DHT22;16344;50.364;8.944;2023-09-19T03:49:11;17.60;1.00
29353;DHT22;16344;50.364;8.944;2023-09-19T03:51:36;17.60;1.00
29353;DHT22;16344;50.364;8.944;2023-09-19T03:54:03;17.60;1.00
29353;DHT22;16344;50.364;8.944;2023-09-19T03:56:29;17.60;1.00
29353;DHT22;16344;50.364;8.944;2023-09-19T03:58:55;17.50;1.00
29353;DHT22;16344;50.364;8.944;2023-09-19T04:01:20;17.40;1.00
29353;DHT22;16344;50.364;8.944;2023-09-19T04:03:46;17.50;1.00
29353;DHT22;16344;50.364;8.944;2023-09-19T04:06:13;17.60;1.00
29353;DHT22;16344;50.364;8.944;2023-09-19T04:08:39;17.60;1.00
29353;DHT22;16344;50.364;8.944;2023-09-19T04:11:04;17.60;1.00
29353;DHT22;16344;50.364;8.944;2023-09-19T04:13:30;17.50;1.00
29353;DHT22;16344;50.364;8.944;2023-09-19T04:15:55;17.50;1.00
29353;DHT22;16344;50.364;8.944;2023-09-19T04:18:21;17.60;1.00
29353;DHT22;16344;50.364;8.944;2023-09-19T04:20:54;17.60;1.00
29353;DHT22;16344;50.364;8.944;2023-09-19T04:23:21;17.50;1.00
29353;DHT22;16344;50.364;8.944;2023-09-19T04:25:46;17.50;1.00
29353;DHT22;16344;50.364;8.944;2023-09-19T04:28:12;17.50;1.00
29353;DHT22;16344;50.364;8.944;2023-09-19T04:30:38;17.60;1.00
29353;DHT22;16344;50.364;8.944;2023-09-19T04:33:06;17.50;99.90
29353;DHT22;16344;50.364;8.944;2023-09-19T04:35:32;17.50;99.90
29353;DHT22;16344;50.364;8.944;2023-09-19T04:37:58;17.50;99.90
29353;DHT22;16344;50.364;8.944;2023-09-19T04:40:24;17.60;99.90
29353;DHT22;16344;50.364;8.944;2023-09-19T04:42:55;17.60;99.90
29353;DHT22;16344;50.364;8.944;2023-09-19T04:45:22;17.60;99.90
29353;DHT22;16344;50.364;8.944;2023-09-19T04:47:48;17.50;99.90
29353;DHT22;16344;50.364;8.944;2023-09-19T04:50:13;17.50;99.90
29353;DHT22;16344;50.364;8.944;2023-09-19T04:52:45;17.60;99.90
29353;DHT22;16344;50.364;8.944;2023-09-19T04:55:14;17.60;1.00
29353;DHT22;16344;50.364;8.944;2023-09-19T04:57:46;17.60;1.00
29353;DHT22;16344;50.364;8.944;2023-09-19T05:00:14;17.60;1.00
29353;DHT22;16344;50.364;8.944;2023-09-19T05:02:43;17.60;99.90
29353;DHT22;16344;50.364;8.944;2023-09-19T05:05:09;17.50;1.00
29353;DHT22;16344;50.364;8.944;2023-09-19T05:07:40;17.50;1.00
29353;DHT22;16344;50.364;8.944;2023-09-19T05:10:06;17.60;1.00
29353;DHT22;16344;50.364;8.944;2023-09-19T05:12:36;17.60;1.00
29353;DHT22;16344;50.364;8.944;2023-09-19T05:15:05;17.60;1.00
29353;DHT22;16344;50.364;8.944;2023-09-19T05:17:34;17.60;99.90
29353;DHT22;16344;50.364;8.944;2023-09-19T05:20:01;17.60;99.90
29353;DHT22;16344;50.364;8.944;2023-09-19T05:22:40;17.60;99.90
29353;DHT22;16344;50.364;8.944;2023-09-19T05:25:06;17.50;1.00
29353;DHT22;16344;50.364;8.944;2023-09-19T05:27:32;17.60;1.00
29353;DHT22;16344;50.364;8.944;2023-09-19T05:29:59;17.50;99.90
29353;DHT22;16344;50.364;8.944;2023-09-19T05:32:24;17.50;1.00
29353;DHT22;16344;50.364;8.944;2023-09-19T05:34:50;17.50;1.00
29353;DHT22;16344;50.364;8.944;2023-09-19T05:37:19;17.50;1.00
29353;DHT22;16344;50.364;8.944;2023-09-19T05:39:44;17.50;1.00
29353;DHT22;16344;50.364;8.944;2023-09-19T05:42:10;17.40;1.00
29353;DHT22;16344;50.364;8.944;2023-09-19T05:44:35;17.40;1.00
29353;DHT22;16344;50.364;8.944;2023-09-19T05:47:03;17.50;1.00
29353;DHT22;16344;50.364;8.944;2023-09-19T05:49:29;17.60;1.00
29353;DHT22;16344;50.364;8.944;2023-09-19T05:51:54;17.60;99.90
29353;DHT22;16344;50.364;8.944;2023-09-19T05:54:22;17.50;1.00
29353;DHT22;16344;50.364;8.944;2023-09-19T05:56:48;17.50;1.00
29353;DHT22;16344;50.364;8.944;2023-09-19T05:59:14;17.50;1.00
29353;DHT22;16344;50.364;8.944;2023-09-19T06:01:44;17.50;1.00
29353;DHT22;16344;50.364;8.944;2023-09-19T06:04:10;17.50;1.00
29353;DHT22;16344;50.364;8.944;2023-09-19T06:06:35;17.60;99.90
29353;DHT22;16344;50.364;8.944;2023-09-19T06:09:04;17.60;99.90
29353;DHT22;16344;50.364;8.944;2023-09-19T06:11:31;17.70;99.90
29353;DHT22;16344;50.364;8.944;2023-09-19T06:14:00;17.80;99.90
29353;DHT22;16344;50.364;8.944;2023-09-19T06:16:30;17.80;99.90
29353;DHT22;16344;50.364;8.944;2023-09-19T06:18:58;17.80;99.90
29353;DHT22;16344;50.364;8.944;2023-09-19T06:21:26;17.80;99.90
29353;DHT22;16344;50.364;8.944;2023-09-19T06:23:53;17.80;99.90
29353;DHT22;16344;50.364;8.944;2023-09-19T06:26:18;17.70;99.90
29353;DHT22;16344;50.364;8.944;2023-09-19T06:28:44;17.70;99.90
29353;DHT22;16344;50.364;8.944;2023-09-19T06:31:10;17.60;99.90
29353;DHT22;16344;50.364;8.944;2023-09-19T06:33:36;17.60;99.90
29353;DHT22;16344;50.364;8.944;2023-09-19T06:36:06;17.70;99.90
29353;DHT22;16344;50.364;8.944;2023-09-19T06:38:32;17.80;99.90
29353;DHT22;16344;50.364;8.944;2023-09-19T06:40:59;17.80;99.90
29353;DHT22;16344;50.364;8.944;2023-09-19T06:43:26;17.80;99.90
29353;DHT22;16344;50.364;8.944;2023-09-19T06:45:53;17.80;99.90
29353;DHT22;16344;50.364;8.944;2023-09-19T06:48:20;17.90;99.90
29353;DHT22;16344;50.364;8.944;2023-09-19T06:50:46;17.90;99.90
29353;DHT22;16344;50.364;8.944;2023-09-19T06:53:13;17.90;99.90
29353;DHT22;16344;50.364;8.944;2023-09-19T06:55:39;18.00;99.90
29353;DHT22;16344;50.364;8.944;2023-09-19T06:58:05;17.90;99.90
29353;DHT22;16344;50.364;8.944;2023-09-19T07:00:31;18.00;99.90
29353;DHT22;16344;50.364;8.944;2023-09-19T07:03:03;17.90;99.90
29353;DHT22;16344;50.364;8.944;2023-09-19T07:05:34;18.10;99.90
29353;DHT22;16344;50.364;8.944;2023-09-19T07:08:03;18.10;99.90
29353;DHT22;16344;50.364;8.944;2023-09-19T07:10:29;18.10;99.90
29353;DHT22;16344;50.364;8.944;2023-09-19T07:12:56;18.20;99.90
29353;DHT22;16344;50.364;8.944;2023-09-19T07:15:23;18.20;99.90
29353;DHT22;16344;50.364;8.944;2023-09-19T07:17:51;18.30;99.90
29353;DHT22;16344;50.364;8.944;2023-09-19T07:20:18;18.30;99.90
29353;DHT22;16344;50.364;8.944;2023-09-19T07:22:44;18.40;99.90
29353;DHT22;16344;50.364;8.944;2023-09-19T07:25:10;18.50;99.90
29353;DHT22;16344;50.364;8.944;2023-09-19T07:27:35;18.50;99.90
29353;DHT22;16344;50.364;8.944;2023-09-19T07:30:01;18.50;99.90
29353;DHT22;16344;50.364;8.944;2023-09-19T07:32:26;18.50;99.90
29353;DHT22;16344;50.364;8.944;2023-09-19T07:34:52;18.50;99.90
29353;DHT22;16344;50.364;8.944;2023-09-19T07:37:18;18.60;99.90
29353;DHT22;16344;50.364;8.944;2023-09-19T07:39:43;18.60;99.90
29353;DHT22;16344;50.364;8.944;2023-09-19T07:42:10;18.60;99.90
29353;DHT22;16344;50.364;8.944;2023-09-19T07:44:36;18.60;99.90
29353;DHT22;16344;50.364;8.944;2023-09-19T07:47:02;18.70;99.90
29353;DHT22;16344;50.364;8.944;2023-09-19T07:49:28;18.70;99.90
29353;DHT22;16344;50.364;8.944;2023-09-19T07:51:54;18.80;99.90
29353;DHT22;16344;50.364;8.944;2023-09-19T07:54:20;18.80;99.90
29353;DHT22;16344;50.364;8.944;2023-09-19T07:56:46;18.80;99.90
29353;DHT22;16344;50.364;8.944;2023-09-19T07:59:12;19.00;99.90
29353;DHT22;16344;50.364;8.944;2023-09-19T08:01:39;18.90;99.90
29353;DHT22;16344;50.364;8.944;2023-09-19T08:04:07;18.90;99.90
29353;DHT22;16344;50.364;8.944;2023-09-19T08:06:32;18.90;99.90
29353;DHT22;16344;50.364;8.944;2023-09-19T08:08:58;19.00;99.90
29353;DHT22;16344;50.364;8.944;2023-09-19T08:11:26;19.00;99.90
29353;DHT22;16344;50.364;8.944;2023-09-19T08:13:56;19.00;99.90
29353;DHT22;16344;50.364;8.944;2023-09-19T08:16:21;19.20;99.90
29353;DHT22;16344;50.364;8.944;2023-09-19T08:18:48;19.30;99.90
29353;DHT22;16344;50.364;8.944;2023-09-19T08:21:13;19.40;99.90
29353;DHT22;16344;50.364;8.944;2023-09-19T08:23:40;19.60;99.90
29353;DHT22;16344;50.364;8.944;2023-09-19T08:26:06;19.80;95.50
29353;DHT22;16344;50.364;8.944;2023-09-19T08:28:36;19.90;1.00
29353;DHT22;16344;50.364;8.944;2023-09-19T08:31:06;19.90;1.00
29353;DHT22;16344;50.364;8.944;2023-09-19T08:33:36;20.00;1.00
29353;DHT22;16344;50.364;8.944;2023-09-19T08:36:03;20.10;1.00
29353;DHT22;16344;50.364;8.944;2023-09-19T08:38:31;20.30;1.00
29353;DHT22;16344;50.364;8.944;2023-09-19T08:40:59;20.20;1.00
29353;DHT22;16344;50.364;8.944;2023-09-19T08:43:25;20.10;1.00
29353;DHT22;16344;50.364;8.944;2023-09-19T08:46:03;20.20;1.00
29353;DHT22;16344;50.364;8.944;2023-09-19T08:48:31;20.40;1.00
29353;DHT22;16344;50.364;8.944;2023-09-19T08:51:03;20.50;1.00
29353;DHT22;16344;50.364;8.944;2023-09-19T08:53:38;20.60;1.00
29353;DHT22;16344;50.364;8.944;2023-09-19T08:56:09;20.60;1.00
29353;DHT22;16344;50.364;8.944;2023-09-19T08:58:50;20.80;1.00
29353;DHT22;16344;50.364;8.944;2023-09-19T09:01:18;20.90;1.00
29353;DHT22;16344;50.364;8.944;2023-09-19T09:03:53;21.10;1.00
29353;DHT22;16344;50.364;8.944;2023-09-19T09:06:20;21.20;1.00
29353;DHT22;16344;50.364;8.944;2023-09-19T09:08:46;21.20;1.00
29353;DHT22;16344;50.364;8.944;2023-09-19T09:11:15;21.20;1.00
29353;DHT22;16344;50.364;8.944;2023-09-19T09:13:41;21.20;1.00
29353;DHT22;16344;50.364;8.944;2023-09-19T09:16:07;21.30;1.00
29353;DHT22;16344;50.364;8.944;2023-09-19T09:18:35;21.40;1.00
29353;DHT22;16344;50.364;8.944;2023-09-19T09:21:01;21.50;1.00
29353;DHT22;16344;50.364;8.944;2023-09-19T09:23:35;21.50;1.00
29353;DHT22;16344;50.364;8.944;2023-09-19T09:26:01;21.60;1.00
29353;DHT22;16344;50.364;8.944;2023-09-19T09:28:33;21.50;1.00
29353;DHT22;16344;50.364;8.944;2023-09-19T09:30:59;21.50;1.00
29353;DHT22;16344;50.364;8.944;2023-09-19T09:33:28;21.60;1.00
29353;DHT22;16344;50.364;8.944;2023-09-19T09:38:27;21.50;1.00
29353;DHT22;16344;50.364;8.944;2023-09-19T09:40:58;21.40;1.00
29353;DHT22;16344;50.364;8.944;2023-09-19T09:43:38;21.40;1.00
29353;DHT22;16344;50.364;8.944;2023-09-19T09:46:16;21.40;1.00
29353;DHT22;16344;50.364;8.944;2023-09-19T09:51:45;21.60;1.00
29353;DHT22;16344;50.364;8.944;2023-09-19T09:54:23;21.60;1.00
29353;DHT22;16344;50.364;8.944;2023-09-19T09:57:04;21.40;1.00
29353;DHT22;16344;50.364;8.944;2023-09-19T10:02:18;21.60;1.00
29353;DHT22;16344;50.364;8.944;2023-09-19T10:04:49;21.70;1.00
29353;DHT22;16344;50.364;8.944;2023-09-19T10:07:26;21.80;1.00
29353;DHT22;16344;50.364;8.944;2023-09-19T10:10:01;21.80;1.00
29353;DHT22;16344;50.364;8.944;2023-09-19T10:12:32;21.90;1.00
29353;DHT22;16344;50.364;8.944;2023-09-19T10:15:03;21.90;1.00
29353;DHT22;16344;50.364;8.944;2023-09-19T10:17:34;21.80;1.00
29353;DHT22;16344;50.364;8.944;2023-09-19T10:20:02;21.80;1.00
29353;DHT22;16344;50.364;8.944;2023-09-19T10:22:35;21.70;1.00
29353;DHT22;16344;50.364;8.944;2023-09-19T10:25:04;21.80;1.00
29353;DHT22;16344;50.364;8.944;2023-09-19T10:27:32;21.90;1.00
29353;DHT22;16344;50.364;8.944;2023-09-19T10:30:05;22.00;1.00
29353;DHT22;16344;50.364;8.944;2023-09-19T10:32:34;22.10;1.00
29353;DHT22;16344;50.364;8.944;2023-09-19T10:35:02;22.00;1.00
29353;DHT22;16344;50.364;8.944;2023-09-19T10:37:31;21.90;1.00
29353;DHT22;16344;50.364;8.944;2023-09-19T10:39:58;21.70;1.00
29353;DHT22;16344;50.364;8.944;2023-09-19T10:42:25;21.70;1.00
29353;DHT22;16344;50.364;8.944;2023-09-19T10:44:54;21.80;1.00
29353;DHT22;16344;50.364;8.944;2023-09-19T10:47:21;21.80;1.00
29353;DHT22;16344;50.364;8.944;2023-09-19T10:49:49;21.90;1.00
29353;DHT22;16344;50.364;8.944;2023-09-19T10:52:19;22.00;1.00
29353;DHT22;16344;50.364;8.944;2023-09-19T10:54:48;22.00;1.00
29353;DHT22;16344;50.364;8.944;2023-09-19T10:57:24;21.90;1.00
29353;DHT22;16344;50.364;8.944;2023-09-19T11:00:06;21.90;1.00
29353;DHT22;16344;50.364;8.944;2023-09-19T11:03:19;21.90;1.00
29353;DHT22;16344;50.364;8.944;2023-09-19T11:06:24;21.90;1.00
29353;DHT22;16344;50.364;8.944;2023-09-19T11:09:03;22.00;1.00
29353;DHT22;16344;50.364;8.944;2023-09-19T11:17:33;21.80;1.00
29353;DHT22;16344;50.364;8.944;2023-09-19T11:30:34;22.00;1.00
29353;DHT22;16344;50.364;8.944;2023-09-19T11:36:08;21.80;1.00
29353;DHT22;16344;50.364;8.944;2023-09-19T11:49:16;21.80;1.00
29353;DHT22;16344;50.364;8.944;2023-09-19T11:51:46;21.90;1.00
29353;DHT22;16344;50.364;8.944;2023-09-19T11:54:14;22.00;1.00
29353;DHT22;16344;50.364;8.944;2023-09-19T11:56:44;22.10;1.00
29353;DHT22;16344;50.364;8.944;2023-09-19T11:59:13;22.10;1.00
29353;DHT22;16344;50.364;8.944;2023-09-19T12:01:51;22.10;1.00
29353;DHT22;16344;50.364;8.944;2023-09-19T12:07:07;22.30;1.00
29353;DHT22;16344;50.364;8.944;2023-09-19T12:09:51;22.30;1.00
29353;DHT22;16344;50.364;8.944;2023-09-19T12:12:27;22.30;1.00
29353;DHT22;16344;50.364;8.944;2023-09-19T12:14:54;22.20;1.00
29353;DHT22;16344;50.364;8.944;2023-09-19T12:17:20;22.10;1.00
29353;DHT22;16344;50.364;8.944;2023-09-19T12:19:51;22.20;1.00
29353;DHT22;16344;50.364;8.944;2023-09-19T12:22:17;22.40;1.00
29353;DHT22;16344;50.364;8.944;2023-09-19T12:24:44;22.50;1.00
29353;DHT22;16344;50.364;8.944;2023-09-19T12:27:11;22.70;1.00
29353;DHT22;16344;50.364;8.944;2023-09-19T12:29:47;22.70;1.00
29353;DHT22;16344;50.364;8.944;2023-09-19T12:32:36;22.70;1.00
29353;DHT22;16344;50.364;8.944;2023-09-19T12:35:09;22.70;1.00
29353;DHT22;16344;50.364;8.944;2023-09-19T12:37:45;22.60;1.00
29353;DHT22;16344;50.364;8.944;2023-09-19T12:40:21;22.60;1.00
29353;DHT22;16344;50.364;8.944;2023-09-19T12:42:52;22.70;1.00
29353;DHT22;16344;50.364;8.944;2023-09-19T12:45:20;22.60;1.00
29353;DHT22;16344;50.364;8.944;2023-09-19T12:48:24;22.70;1.00
29353;DHT22;16344;50.364;8.944;2023-09-19T12:51:06;22.90;1.00
29353;DHT22;16344;50.364;8.944;2023-09-19T12:53:43;22.80;1.00
29353;DHT22;16344;50.364;8.944;2023-09-19T12:56:16;22.60;1.00
29353;DHT22;16344;50.364;8.944;2023-09-19T12:58:56;22.40;1.00
29353;DHT22;16344;50.364;8.944;2023-09-19T13:01:26;22.40;1.00
29353;DHT22;16344;50.364;8.944;2023-09-19T13:04:18;22.50;1.00
29353;DHT22;16344;50.364;8.944;2023-09-19T13:06:51;22.50;1.00
29353;DHT22;16344;50.364;8.944;2023-09-19T13:09:19;22.50;1.00
29353;DHT22;16344;50.364;8.944;2023-09-19T13:12:00;22.60;1.00
29353;DHT22;16344;50.364;8.944;2023-09-19T13:14:28;22.70;1.00
29353;DHT22;16344;50.364;8.944;2023-09-19T13:17:02;22.60;1.00
29353;DHT22;16344;50.364;8.944;2023-09-19T13:19:43;22.50;1.00
29353;DHT22;16344;50.364;8.944;2023-09-19T13:22:40;22.50;1.00
29353;DHT22;16344;50.364;8.944;2023-09-19T13:25:18;22.50;1.00
29353;DHT22;16344;50.364;8.944;2023-09-19T13:30:13;22.30;1.00
29353;DHT22;16344;50.364;8.944;2023-09-19T13:32:39;22.30;1.00
29353;DHT22;16344;50.364;8.944;2023-09-19T13:35:07;22.20;1.00
29353;DHT22;16344;50.364;8.944;2023-09-19T13:37:39;22.10;1.00
29353;DHT22;16344;50.364;8.944;2023-09-19T13:40:09;22.00;1.00
29353;DHT22;16344;50.364;8.944;2023-09-19T13:42:36;22.10;1.00
29353;DHT22;16344;50.364;8.944;2023-09-19T13:45:02;22.00;1.00
29353;DHT22;16344;50.364;8.944;2023-09-19T13:47:30;22.00;1.00
29353;DHT22;16344;50.364;8.944;2023-09-19T13:49:57;22.00;1.00
29353;DHT22;16344;50.364;8.944;2023-09-19T13:52:24;21.90;1.00
29353;DHT22;16344;50.364;8.944;2023-09-19T13:54:53;22.00;1.00
29353;DHT22;16344;50.364;8.944;2023-09-19T13:57:25;22.20;1.00
29353;DHT22;16344;50.364;8.944;2023-09-19T13:59:52;22.30;1.00
29353;DHT22;16344;50.364;8.944;2023-09-19T14:02:22;22.40;1.00
29353;DHT22;16344;50.364;8.944;2023-09-19T14:04:52;22.50;1.00
29353;DHT22;16344;50.364;8.944;2023-09-19T14:07:18;22.50;1.00
29353;DHT22;16344;50.364;8.944;2023-09-19T14:09:48;22.60;1.00
29353;DHT22;16344;50.364;8.944;2023-09-19T14:12:15;22.50;1.00
29353;DHT22;16344;50.364;8.944;2023-09-19T14:14:41;22.40;1.00
29353;DHT22;16344;50.364;8.944;2023-09-19T14:17:08;22.20;1.00
29353;DHT22;16344;50.364;8.944;2023-09-19T14:19:34;22.10;1.00
29353;DHT22;16344;50.364;8.944;2023-09-19T14:22:02;22.10;1.00
29353;DHT22;16344;50.364;8.944;2023-09-19T14:24:33;22.10;1.00
29353;DHT22;16344;50.364;8.944;2023-09-19T14:26:59;22.10;1.00
29353;DHT22;16344;50.364;8.944;2023-09-19T14:29:25;22.20;1.00
29353;DHT22;16344;50.364;8.944;2023-09-19T14:31:50;22.20;1.00
29353;DHT22;16344;50.364;8.944;2023-09-19T14:34:17;22.30;1.00
29353;DHT22;16344;50.364;8.944;2023-09-19T14:36:43;22.10;1.00
29353;DHT22;16344;50.364;8.944;2023-09-19T14:39:08;22.00;1.00
29353;DHT22;16344;50.364;8.944;2023-09-19T14:41:34;22.00;1.00
29353;DHT22;16344;50.364;8.944;2023-09-19T14:44:02;22.00;1.00
29353;DHT22;16344;50.364;8.944;2023-09-19T14:46:28;22.00;1.00
29353;DHT22;16344;50.364;8.944;2023-09-19T14:48:54;22.00;1.00
29353;DHT22;16344;50.364;8.944;2023-09-19T14:51:23;22.00;1.00
29353;DHT22;16344;50.364;8.944;2023-09-19T14:53:49;21.90;1.00
29353;DHT22;16344;50.364;8.944;2023-09-19T14:56:15;21.90;1.00
29353;DHT22;16344;50.364;8.944;2023-09-19T14:58:44;21.80;1.00
29353;DHT22;16344;50.364;8.944;2023-09-19T15:01:11;21.80;1.00
29353;DHT22;16344;50.364;8.944;2023-09-19T15:03:38;21.70;1.00
29353;DHT22;16344;50.364;8.944;2023-09-19T15:06:11;21.80;1.00
29353;DHT22;16344;50.364;8.944;2023-09-19T15:08:41;21.90;1.00
29353;DHT22;16344;50.364;8.944;2023-09-19T15:11:11;21.80;1.00
29353;DHT22;16344;50.364;8.944;2023-09-19T15:13:38;21.70;1.00
29353;DHT22;16344;50.364;8.944;2023-09-19T15:16:05;21.70;1.00
29353;DHT22;16344;50.364;8.944;2023-09-19T15:18:37;21.70;1.00
29353;DHT22;16344;50.364;8.944;2023-09-19T15:21:04;21.70;1.00
29353;DHT22;16344;50.364;8.944;2023-09-19T15:23:33;21.70;1.00
29353;DHT22;16344;50.364;8.944;2023-09-19T15:26:03;21.60;1.00
29353;DHT22;16344;50.364;8.944;2023-09-19T15:28:30;21.50;1.00
29353;DHT22;16344;50.364;8.944;2023-09-19T15:31:01;21.40;1.00
29353;DHT22;16344;50.364;8.944;2023-09-19T15:33:27;21.40;1.00
29353;DHT22;16344;50.364;8.944;2023-09-19T15:36:12;21.30;1.00
29353;DHT22;16344;50.364;8.944;2023-09-19T15:41:28;21.20;1.00
29353;DHT22;16344;50.364;8.944;2023-09-19T15:43:56;21.20;1.00
29353;DHT22;16344;50.364;8.944;2023-09-19T15:46:22;21.10;1.00
29353;DHT22;16344;50.364;8.944;2023-09-19T15:48:48;21.20;1.00
29353;DHT22;16344;50.364;8.944;2023-09-19T15:51:14;21.10;1.00
29353;DHT22;16344;50.364;8.944;2023-09-19T15:53:44;21.10;1.00
29353;DHT22;16344;50.364;8.944;2023-09-19T15:56:10;21.00;1.00
29353;DHT22;16344;50.364;8.944;2023-09-19T15:58:40;20.90;1.00
29353;DHT22;16344;50.364;8.944;2023-09-19T16:01:06;20.90;1.00
29353;DHT22;16344;50.364;8.944;2023-09-19T16:03:39;20.90;1.00
29353;DHT22;16344;50.364;8.944;2023-09-19T16:06:14;20.90;1.00
29353;DHT22;16344;50.364;8.944;2023-09-19T16:08:44;20.90;1.00
29353;DHT22;16344;50.364;8.944;2023-09-19T16:11:10;20.90;1.00
29353;DHT22;16344;50.364;8.944;2023-09-19T16:13:37;20.90;1.00
29353;DHT22;16344;50.364;8.944;2023-09-19T16:16:03;20.80;1.00
29353;DHT22;16344;50.364;8.944;2023-09-19T16:18:29;20.80;1.00
29353;DHT22;16344;50.364;8.944;2023-09-19T16:21:01;20.80;1.00
29353;DHT22;16344;50.364;8.944;2023-09-19T16:23:27;20.70;1.00
29353;DHT22;16344;50.364;8.944;2023-09-19T16:26:04;20.70;1.00
29353;DHT22;16344;50.364;8.944;2023-09-19T16:28:31;20.60;1.00
29353;DHT22;16344;50.364;8.944;2023-09-19T16:31:00;20.60;1.00
29353;DHT22;16344;50.364;8.944;2023-09-19T16:33:28;20.60;1.00
29353;DHT22;16344;50.364;8.944;2023-09-19T16:35:53;20.80;1.00
29353;DHT22;16344;50.364;8.944;2023-09-19T16:38:19;20.80;1.00
29353;DHT22;16344;50.364;8.944;2023-09-19T16:40:55;20.90;1.00
29353;DHT22;16344;50.364;8.944;2023-09-19T16:43:21;20.90;1.00
29353;DHT22;16344;50.364;8.944;2023-09-19T16:45:55;20.90;1.00